Time;durP1;ratioP1;P1;durP2;ratioP2;P2;SDS_P1;SDS_P2;PMS_P1;PMS_P2;Temp;Humidity;BMP_temperature;BMP_pressure;BME280_temperature;BME280_humidity;BME280_pressure;Samples;Min_cycle;Max_cycle;Signal;HPM_P1;HPM_P2
2021/08/04 00:02:20;;;;;;;3.27;2.80;;;19.10;99.90;;;;;;6282904;28;20228;-63
2021/08/04 00:05:24;;;;;;;3.23;2.93;;;19.10;99.90;;;;;;6273869;28;20242;-66
2021/08/04 00:08:29;;;;;;;2.83;2.50;;;19.10;99.90;;;;;;6275009;28;20665;-64
2021/08/04 00:11:32;;;;;;;3.20;2.80;;;19.10;99.90;;;;;;6274519;28;21001;-63
2021/08/04 00:14:35;;;;;;;3.53;2.83;;;19.10;99.90;;;;;;6274062;28;20512;-63
2021/08/04 00:17:39;;;;;;;3.20;2.90;;;19.10;99.90;;;;;;6274943;28;20232;-63
2021/08/04 00:20:42;;;;;;;3.93;3.63;;;19.00;99.90;;;;;;6275026;28;20955;-65
2021/08/04 00:23:47;;;;;;;3.27;2.97;;;18.90;99.90;;;;;;6270536;28;20955;-63
2021/08/04 00:26:50;;;;;;;4.07;3.77;;;18.80;99.90;;;;;;6274941;28;20470;-65
2021/08/04 00:29:53;;;;;;;4.03;3.73;;;18.80;99.90;;;;;;6274796;28;20784;-65
2021/08/04 00:32:57;;;;;;;4.07;3.67;;;18.70;99.90;;;;;;6286025;28;20469;-62
2021/08/04 00:36:00;;;;;;;3.23;2.90;;;18.70;99.90;;;;;;6287391;28;20474;-62
2021/08/04 00:39:05;;;;;;;4.33;2.90;;;18.70;99.90;;;;;;6287217;28;20482;-62
2021/08/04 00:42:09;;;;;;;3.53;2.80;;;18.70;99.90;;;;;;6283768;28;20226;-62
2021/08/04 00:45:13;;;;;;;4.83;3.17;;;18.70;99.90;;;;;;6286375;28;20482;-62
2021/08/04 00:48:18;;;;;;;2.83;2.63;;;18.70;99.90;;;;;;6283702;28;20791;-62
2021/08/04 00:51:21;;;;;;;3.27;2.67;;;18.60;99.90;;;;;;6284397;28;21819;-63
2021/08/04 00:54:25;;;;;;;3.67;2.90;;;18.70;99.90;;;;;;6291623;28;20500;-63
2021/08/04 00:57:28;;;;;;;2.80;2.60;;;18.70;99.90;;;;;;6291789;28;20484;-63
2021/08/04 01:00:32;;;;;;;2.70;2.50;;;18.70;99.90;;;;;;6281390;28;20469;-63
2021/08/04 01:03:41;;;;;;;2.80;2.60;;;18.70;99.90;;;;;;6285349;28;20474;-60
2021/08/04 01:06:50;;;;;;;2.80;2.60;;;18.80;99.90;;;;;;6291015;28;20481;-63
2021/08/04 01:10:02;;;;;;;3.03;2.77;;;18.90;99.90;;;;;;6292337;28;20466;-63
2021/08/04 01:13:10;;;;;;;3.33;2.80;;;18.90;99.90;;;;;;6274034;28;20728;-62
2021/08/04 01:16:18;;;;;;;2.90;2.67;;;18.80;99.90;;;;;;6274682;28;20457;-62
2021/08/04 01:19:35;;;;;;;2.90;2.70;;;18.80;99.90;;;;;;6274204;28;20450;-62
2021/08/04 01:22:52;;;;;;;3.17;2.87;;;18.80;99.90;;;;;;6274450;28;20466;-62
2021/08/04 01:25:59;;;;;;;5.67;2.50;;;18.90;99.90;;;;;;6274297;28;20466;-61
2021/08/04 01:29:08;;;;;;;3.00;2.80;;;18.80;99.90;;;;;;6274378;28;20585;-62
2021/08/04 01:32:12;;;;;;;4.27;2.73;;;18.90;99.90;;;;;;6273837;28;20481;-62
2021/08/04 01:35:17;;;;;;;3.13;2.50;;;18.90;99.90;;;;;;6274225;28;20257;-62
2021/08/04 01:38:21;;;;;;;3.93;2.70;;;18.90;99.90;;;;;;6273962;28;20228;-62
2021/08/04 01:41:25;;;;;;;2.83;2.63;;;18.90;99.90;;;;;;6274137;28;20223;-61
2021/08/04 01:44:32;;;;;;;2.93;2.33;;;18.90;99.90;;;;;;6273558;28;20246;-62
2021/08/04 01:47:37;;;;;;;3.90;2.80;;;18.90;99.90;;;;;;6274009;28;20227;-63
2021/08/04 01:50:41;;;;;;;3.07;2.70;;;18.90;99.90;;;;;;6273630;28;20228;-63
2021/08/04 01:53:47;;;;;;;3.40;2.70;;;18.90;99.90;;;;;;6273942;28;20250;-62
2021/08/04 01:56:50;;;;;;;3.20;2.73;;;18.80;99.90;;;;;;6273678;28;20232;-62
2021/08/04 01:59:55;;;;;;;5.03;3.17;;;18.80;99.90;;;;;;6273991;28;20231;-62
2021/08/04 02:02:58;;;;;;;2.40;2.30;;;18.80;99.90;;;;;;6273662;28;20246;-62
2021/08/04 02:06:06;;;;;;;9.73;3.50;;;18.70;99.90;;;;;;6273821;28;20565;-62
2021/08/04 02:09:17;;;;;;;2.93;2.63;;;18.70;99.90;;;;;;6273727;28;20242;-62
2021/08/04 02:12:21;;;;;;;3.80;2.67;;;18.70;99.90;;;;;;6273645;28;20227;-62
2021/08/04 02:15:29;;;;;;;2.70;2.50;;;18.70;99.90;;;;;;6273316;28;20240;-62
2021/08/04 02:18:33;;;;;;;3.80;3.50;;;18.70;99.90;;;;;;6274651;28;20223;-62
2021/08/04 02:21:41;;;;;;;3.57;3.07;;;18.70;99.90;;;;;;6278064;28;20477;-62
2021/08/04 02:24:51;;;;;;;4.10;2.43;;;18.70;99.90;;;;;;6277753;28;20243;-63
2021/08/04 02:27:56;;;;;;;5.60;3.20;;;18.70;99.90;;;;;;6278672;28;20457;-63
2021/08/04 02:31:02;;;;;;;3.90;2.93;;;18.70;99.90;;;;;;6268245;28;20227;-62
2021/08/04 02:34:05;;;;;;;3.07;2.83;;;18.70;99.90;;;;;;6278139;28;20600;-62
2021/08/04 02:37:09;;;;;;;3.30;2.60;;;18.70;99.90;;;;;;6277534;28;20564;-62
2021/08/04 02:40:13;;;;;;;3.37;2.70;;;18.70;99.90;;;;;;6278109;28;20454;-62
2021/08/04 02:43:17;;;;;;;3.43;3.13;;;18.70;99.90;;;;;;6277403;28;20467;-63
2021/08/04 02:46:23;;;;;;;3.10;2.90;;;18.70;99.90;;;;;;6277856;28;20462;-62
2021/08/04 02:49:27;;;;;;;3.00;2.70;;;18.70;99.90;;;;;;6277542;28;20466;-63
2021/08/04 02:52:30;;;;;;;3.20;2.87;;;18.70;99.90;;;;;;6277673;28;20927;-63
2021/08/04 02:55:33;;;;;;;3.10;2.80;;;18.80;99.90;;;;;;6277510;28;20481;-64
2021/08/04 02:58:37;;;;;;;4.03;2.83;;;18.80;99.90;;;;;;6277807;28;20469;-64
2021/08/04 03:01:42;;;;;;;4.23;3.33;;;18.80;99.90;;;;;;6276930;28;20466;-64
2021/08/04 03:04:46;;;;;;;7.33;2.80;;;18.80;99.90;;;;;;6277214;28;20478;-64
2021/08/04 03:07:49;;;;;;;3.83;3.00;;;18.70;99.90;;;;;;6276936;28;20822;-64
2021/08/04 03:10:52;;;;;;;3.37;3.07;;;18.80;99.90;;;;;;6277274;28;20232;-64
2021/08/04 03:13:56;;;;;;;2.53;2.33;;;18.80;99.90;;;;;;6276944;28;20236;-62
2021/08/04 03:17:00;;;;;;;2.97;2.67;;;18.70;99.90;;;;;;6276662;28;20803;-62
2021/08/04 03:20:04;;;;;;;3.57;2.67;;;18.70;99.90;;;;;;6277393;28;20568;-64
2021/08/04 03:23:08;;;;;;;3.07;2.50;;;18.80;99.90;;;;;;6276503;28;20246;-63
2021/08/04 03:26:11;;;;;;;3.13;2.83;;;18.70;99.90;;;;;;6276970;28;20246;-64
2021/08/04 03:29:14;;;;;;;2.60;2.40;;;18.80;99.90;;;;;;6276448;28;21011;-64
2021/08/04 03:32:18;;;;;;;3.33;3.10;;;18.80;99.90;;;;;;6276005;28;20603;-63
2021/08/04 03:35:22;;;;;;;2.67;2.47;;;18.80;99.90;;;;;;6271861;28;20247;-64
2021/08/04 03:38:25;;;;;;;3.40;2.33;;;18.80;99.90;;;;;;6276704;28;20520;-64
2021/08/04 03:41:28;;;;;;;3.07;2.47;;;18.80;99.90;;;;;;6276359;28;20228;-64
2021/08/04 03:44:31;;;;;;;2.70;2.50;;;18.80;99.90;;;;;;6276436;28;20485;-64
2021/08/04 03:47:36;;;;;;;3.60;2.73;;;18.70;99.90;;;;;;6276199;28;20477;-64
2021/08/04 03:50:39;;;;;;;5.30;2.97;;;18.70;99.90;;;;;;6276437;28;20623;-64
2021/08/04 03:53:42;;;;;;;4.60;2.50;;;18.60;99.90;;;;;;6276312;28;20532;-64
2021/08/04 03:56:45;;;;;;;3.07;2.87;;;18.70;99.90;;;;;;6276293;28;20235;-63
2021/08/04 03:59:48;;;;;;;3.40;3.10;;;18.70;99.90;;;;;;6275954;28;20242;-63
2021/08/04 04:02:53;;;;;;;3.77;2.77;;;18.60;99.90;;;;;;6275920;28;20470;-62
2021/08/04 04:05:57;;;;;;;3.60;3.10;;;18.70;99.90;;;;;;6276350;28;20234;-63
2021/08/04 04:09:00;;;;;;;2.50;2.30;;;18.80;99.90;;;;;;6275711;28;20238;-63
2021/08/04 04:12:04;;;;;;;3.00;2.80;;;18.80;99.90;;;;;;6276078;28;20242;-63
2021/08/04 04:15:08;;;;;;;2.90;2.70;;;18.90;99.90;;;;;;6275580;28;20239;-63
2021/08/04 04:18:13;;;;;;;2.77;2.57;;;18.90;99.90;;;;;;6275696;28;20261;-64
2021/08/04 04:21:16;;;;;;;3.10;2.67;;;19.00;99.90;;;;;;6275385;28;20239;-64
2021/08/04 04:24:19;;;;;;;3.77;2.83;;;19.00;99.90;;;;;;6275858;28;20235;-63
2021/08/04 04:27:22;;;;;;;2.90;2.70;;;19.10;99.90;;;;;;6275429;28;20466;-64
2021/08/04 04:30:26;;;;;;;3.00;2.80;;;19.10;99.90;;;;;;6275691;28;20730;-65
2021/08/04 04:33:30;;;;;;;3.07;2.87;;;19.20;99.90;;;;;;6276135;28;20250;-64
2021/08/04 04:36:33;;;;;;;2.40;2.30;;;19.20;99.90;;;;;;6275413;28;20230;-64
2021/08/04 04:39:37;;;;;;;2.30;2.10;;;19.30;99.90;;;;;;6275582;28;20233;-63
2021/08/04 04:42:40;;;;;;;3.20;2.23;;;19.40;99.90;;;;;;6274643;28;20481;-64
2021/08/04 04:45:44;;;;;;;3.20;2.83;;;19.40;99.90;;;;;;6275974;28;20719;-63
2021/08/04 04:48:48;;;;;;;2.80;2.60;;;19.40;99.90;;;;;;6276031;28;20250;-64
2021/08/04 04:51:51;;;;;;;2.77;2.50;;;19.50;99.90;;;;;;6276449;28;20239;-64
2021/08/04 04:54:54;;;;;;;2.50;2.30;;;19.60;99.90;;;;;;6275688;28;20222;-65
2021/08/04 04:57:58;;;;;;;3.97;2.90;;;19.60;99.90;;;;;;6277958;28;20199;-63
2021/08/04 05:01:01;;;;;;;4.17;3.00;;;19.70;99.90;;;;;;6277207;28;20234;-63
2021/08/04 05:04:07;;;;;;;4.70;3.20;;;19.60;99.90;;;;;;6275937;28;20273;-61
2021/08/04 05:07:10;;;;;;;3.27;3.07;;;19.60;99.90;;;;;;6274358;28;20605;-61
2021/08/04 05:10:13;;;;;;;3.50;2.97;;;19.70;99.90;;;;;;6274484;28;20540;-60
2021/08/04 05:13:16;;;;;;;2.73;2.53;;;19.80;99.90;;;;;;6274363;28;20231;-60
2021/08/04 05:16:20;;;;;;;3.93;2.60;;;19.80;99.90;;;;;;6274318;28;20645;-61
2021/08/04 05:19:24;;;;;;;3.20;2.90;;;19.80;99.90;;;;;;6274626;28;20238;-60
2021/08/04 05:22:27;;;;;;;2.33;2.13;;;19.80;99.90;;;;;;6273917;28;20232;-60
2021/08/04 05:25:30;;;;;;;3.30;3.00;;;19.90;99.90;;;;;;6274139;28;20231;-61
2021/08/04 05:28:34;;;;;;;4.80;3.53;;;19.90;99.90;;;;;;6273924;28;20776;-61
2021/08/04 05:31:37;;;;;;;3.30;2.70;;;19.90;99.90;;;;;;6274110;28;20661;-61
2021/08/04 05:34:41;;;;;;;2.83;2.20;;;19.90;99.90;;;;;;6273984;28;20365;-61
2021/08/04 05:37:45;;;;;;;2.87;2.50;;;19.90;99.90;;;;;;6273977;28;20227;-60
2021/08/04 05:40:50;;;;;;;2.90;2.57;;;20.00;99.90;;;;;;6273699;28;20254;-61
2021/08/04 05:43:53;;;;;;;3.10;2.57;;;20.00;99.90;;;;;;6274058;28;20223;-62
2021/08/04 05:46:56;;;;;;;2.63;2.40;;;19.90;99.90;;;;;;6273748;28;20473;-61
2021/08/04 05:50:01;;;;;;;2.50;2.30;;;20.00;99.90;;;;;;6273834;28;20668;-62
2021/08/04 05:53:04;;;;;;;2.10;1.97;;;20.00;99.90;;;;;;6274249;28;20238;-61
2021/08/04 05:56:12;;;;;;;2.50;2.30;;;20.10;99.90;;;;;;6278763;28;20649;-61
2021/08/04 05:59:15;;;;;;;3.20;2.73;;;20.20;99.90;;;;;;6278900;28;20734;-61
2021/08/04 06:02:18;;;;;;;4.03;2.50;;;20.20;99.90;;;;;;6278438;28;20238;-61
2021/08/04 06:05:23;;;;;;;4.10;2.60;;;20.20;99.90;;;;;;6278604;28;20235;-61
2021/08/04 06:08:26;;;;;;;4.03;2.50;;;20.20;99.90;;;;;;6278125;28;20570;-61
2021/08/04 06:11:29;;;;;;;2.60;2.40;;;20.20;99.90;;;;;;6278351;28;20235;-61
2021/08/04 06:14:33;;;;;;;2.83;2.13;;;20.20;99.90;;;;;;6277854;28;20239;-61
2021/08/04 06:17:36;;;;;;;2.93;2.57;;;20.30;99.90;;;;;;6278107;28;20573;-62
2021/08/04 06:20:40;;;;;;;2.73;2.53;;;20.40;99.90;;;;;;6277984;28;20234;-62
2021/08/04 06:23:47;;;;;;;2.77;2.43;;;20.50;99.90;;;;;;6278225;28;20234;-61
2021/08/04 06:26:50;;;;;;;2.93;2.60;;;20.50;99.90;;;;;;6278009;28;20243;-61
2021/08/04 06:29:53;;;;;;;2.70;2.50;;;20.50;99.90;;;;;;6278162;28;20685;-61
2021/08/04 06:32:57;;;;;;;2.60;2.30;;;20.60;99.90;;;;;;6277410;28;20262;-62
2021/08/04 06:36:01;;;;;;;2.47;2.27;;;20.70;99.90;;;;;;6278203;28;20248;-62
2021/08/04 06:39:04;;;;;;;3.57;2.63;;;20.60;99.90;;;;;;6277631;28;20223;-61
2021/08/04 06:42:07;;;;;;;3.50;2.10;;;20.50;99.90;;;;;;6278270;28;20242;-62
2021/08/04 06:45:11;;;;;;;3.70;2.30;;;20.60;99.90;;;;;;6277679;28;20239;-61
2021/08/04 06:48:15;;;;;;;4.27;2.77;;;20.50;99.90;;;;;;6277465;28;20708;-61
2021/08/04 06:51:19;;;;;;;5.50;3.70;;;20.60;99.90;;;;;;6277622;28;20235;-61
2021/08/04 06:54:23;;;;;;;2.57;2.30;;;20.80;99.90;;;;;;6277135;28;20255;-62
2021/08/04 06:57:27;;;;;;;5.40;2.30;;;20.80;99.90;;;;;;6277543;28;20227;-62
2021/08/04 07:00:30;;;;;;;2.53;2.33;;;21.00;99.90;;;;;;6276988;28;20227;-61
2021/08/04 07:03:35;;;;;;;2.87;2.10;;;21.20;99.90;;;;;;6277295;28;20239;-61
2021/08/04 07:06:50;;;;;;;3.00;2.80;;;21.30;99.90;;;;;;6276025;28;20231;-61
2021/08/04 07:09:53;;;;;;;2.93;2.20;;;21.30;99.90;;;;;;6277138;28;20577;-62
2021/08/04 07:12:56;;;;;;;3.47;3.17;;;21.30;99.90;;;;;;6276821;28;20238;-62
2021/08/04 07:15:59;;;;;;;3.97;2.67;;;21.10;99.90;;;;;;6276795;28;20242;-61
2021/08/04 07:19:02;;;;;;;3.47;3.17;;;21.00;99.90;;;;;;6276688;28;20207;-61
2021/08/04 07:22:07;;;;;;;3.67;3.23;;;21.00;99.90;;;;;;6276997;28;20207;-61
2021/08/04 07:25:13;;;;;;;4.00;3.40;;;20.90;99.90;;;;;;6276768;28;20227;-61
2021/08/04 07:28:17;;;;;;;6.87;3.60;;;20.90;99.90;;;;;;6277194;28;20228;-60
2021/08/04 07:31:20;;;;;;;3.27;2.97;;;20.90;99.90;;;;;;6276368;28;20231;-61
2021/08/04 07:34:24;;;;;;;4.17;3.67;;;21.00;99.90;;;;;;6276898;28;20235;-61
2021/08/04 07:37:29;;;;;;;3.80;3.50;;;20.90;99.90;;;;;;6276544;28;20238;-60
2021/08/04 07:40:33;;;;;;;5.40;3.90;;;21.00;99.90;;;;;;6276221;28;20577;-63
2021/08/04 07:43:36;;;;;;;4.67;3.70;;;21.10;99.90;;;;;;6276617;28;20232;-60
2021/08/04 07:46:39;;;;;;;4.00;3.70;;;21.20;99.90;;;;;;6275863;28;20300;-61
2021/08/04 07:49:42;;;;;;;4.60;3.80;;;21.40;99.90;;;;;;6271605;28;20784;-61
2021/08/04 07:52:47;;;;;;;6.07;4.40;;;21.40;99.90;;;;;;6275681;28;20227;-61
2021/08/04 07:55:50;;;;;;;4.30;4.00;;;21.60;99.90;;;;;;6276334;28;20223;-61
2021/08/04 07:58:53;;;;;;;4.97;4.13;;;21.70;99.90;;;;;;6275884;28;20608;-61
2021/08/04 08:01:57;;;;;;;4.07;3.70;;;21.90;99.90;;;;;;6275914;28;20549;-61
2021/08/04 08:05:00;;;;;;;4.30;3.90;;;22.10;99.90;;;;;;6275865;28;20269;-61
2021/08/04 08:08:05;;;;;;;5.50;4.13;;;22.20;99.90;;;;;;6258227;28;20239;-64
2021/08/04 08:11:09;;;;;;;4.60;3.77;;;22.40;99.90;;;;;;6259765;28;20232;-61
2021/08/04 08:14:12;;;;;;;4.10;3.67;;;22.60;99.90;;;;;;6270475;28;20688;-60
2021/08/04 08:17:16;;;;;;;7.87;3.60;;;22.70;99.90;;;;;;6264516;28;20238;-60
2021/08/04 08:20:20;;;;;;;3.73;3.30;;;22.90;99.90;;;;;;6250165;28;20685;-60
2021/08/04 08:23:24;;;;;;;4.30;3.90;;;23.20;99.90;;;;;;6250758;28;20243;-61
2021/08/04 08:26:28;;;;;;;4.10;3.70;;;23.30;99.90;;;;;;6266260;28;20227;-61
2021/08/04 08:29:31;;;;;;;4.13;3.73;;;23.40;99.90;;;;;;6275209;28;20238;-63
2021/08/04 08:32:34;;;;;;;4.40;3.97;;;23.60;99.90;;;;;;6275290;28;20246;-61
2021/08/04 08:35:37;;;;;;;4.87;4.40;;;23.70;99.90;;;;;;6274838;28;20231;-62
2021/08/04 08:38:42;;;;;;;6.57;3.93;;;23.60;99.90;;;;;;6275073;28;20242;-62
2021/08/04 08:41:46;;;;;;;4.40;4.00;;;23.50;99.90;;;;;;6273266;28;20738;-62
2021/08/04 08:44:49;;;;;;;6.20;4.27;;;23.70;99.90;;;;;;6250125;28;20247;-61
2021/08/04 08:47:52;;;;;;;5.33;4.83;;;24.10;99.90;;;;;;6250007;28;20228;-68
2021/08/04 08:50:56;;;;;;;4.77;4.37;;;24.20;99.10;;;;;;6249819;28;20723;-66
2021/08/04 08:54:01;;;;;;;5.03;4.53;;;24.40;99.20;;;;;;6249449;28;20224;-65
2021/08/04 08:57:05;;;;;;;4.80;3.90;;;24.20;99.00;;;;;;6249705;28;20235;-65
2021/08/04 09:00:09;;;;;;;4.30;3.90;;;24.10;98.90;;;;;;6249220;28;20310;-63
2021/08/04 09:03:13;;;;;;;4.27;3.17;;;23.90;99.00;;;;;;6249560;28;20233;-65
2021/08/04 09:06:16;;;;;;;4.53;3.10;;;23.90;98.30;;;;;;6249067;28;20274;-63
2021/08/04 09:09:24;;;;;;;8.17;7.37;;;23.60;97.90;;;;;;6258420;28;20230;-64
2021/08/04 09:12:27;;;;;;;3.67;3.33;;;23.60;98.80;;;;;;6273689;28;20240;-61
2021/08/04 09:15:35;;;;;;;4.13;3.20;;;23.60;99.40;;;;;;6273596;28;20246;-61
2021/08/04 09:18:41;;;;;;;3.43;3.10;;;23.50;99.60;;;;;;6250109;28;20602;-65
2021/08/04 09:21:44;;;;;;;3.97;3.53;;;23.30;99.10;;;;;;6249250;28;20547;-66
2021/08/04 09:25:00;;;;;;;3.80;3.33;;;23.20;99.30;;;;;;6249302;28;20232;-63
2021/08/04 09:28:04;;;;;;;3.57;3.20;;;23.20;98.60;;;;;;6248739;28;20213;-64
2021/08/04 09:31:07;;;;;;;3.70;3.40;;;23.00;99.20;;;;;;6249108;28;20637;-64
2021/08/04 09:34:29;;;;;;;4.07;3.77;;;22.90;99.20;;;;;;6258340;28;20593;-62
2021/08/04 09:37:32;;;;;;;3.70;3.40;;;22.80;99.20;;;;;;6273829;28;20231;-63
2021/08/04 09:40:37;;;;;;;3.77;2.70;;;22.80;99.20;;;;;;6274127;28;20224;-66
2021/08/04 09:43:40;;;;;;;2.83;2.63;;;22.60;99.30;;;;;;6283840;28;20671;-62
2021/08/04 09:46:43;;;;;;;4.30;3.17;;;22.50;99.50;;;;;;6298566;28;20233;-63
2021/08/04 09:49:55;;;;;;;3.27;2.83;;;22.40;99.80;;;;;;6299026;28;20237;-61
2021/08/04 09:53:00;;;;;;;4.90;3.77;;;22.50;99.90;;;;;;6298404;28;20239;-61
2021/08/04 09:56:13;;;;;;;3.07;2.50;;;22.50;99.90;;;;;;6298465;28;20587;-64
2021/08/04 09:59:16;;;;;;;3.73;3.40;;;22.50;99.90;;;;;;6298471;28;20227;-62
2021/08/04 10:02:28;;;;;;;3.13;2.90;;;22.50;99.90;;;;;;6280951;28;20571;-67
2021/08/04 10:05:32;;;;;;;3.27;2.97;;;22.60;99.90;;;;;;6273173;28;20661;-65
2021/08/04 10:08:39;;;;;;;4.23;3.80;;;22.60;99.90;;;;;;6273540;28;20718;-66
2021/08/04 10:11:47;;;;;;;3.80;3.40;;;22.60;99.90;;;;;;6248369;28;20700;-70
2021/08/04 10:14:50;;;;;;;6.63;3.57;;;22.60;99.90;;;;;;6248375;28;20244;-64
2021/08/04 10:17:54;;;;;;;3.97;2.97;;;22.70;99.90;;;;;;6248332;28;20232;-63
2021/08/04 10:20:59;;;;;;;3.80;3.00;;;22.70;99.90;;;;;;6248966;28;20228;-62
2021/08/04 10:24:05;;;;;;;3.33;3.03;;;22.70;99.90;;;;;;6248398;28;20237;-64
2021/08/04 10:27:09;;;;;;;3.10;2.90;;;22.80;99.90;;;;;;6249077;28;20232;-63
2021/08/04 10:30:13;;;;;;;3.30;3.00;;;22.90;99.90;;;;;;6248034;28;20338;-63
2021/08/04 10:33:16;;;;;;;6.00;2.70;;;23.10;99.80;;;;;;6250135;28;20232;-63
2021/08/04 10:36:22;;;;;;;4.90;4.20;;;23.40;99.60;;;;;;6272787;28;20231;-63
2021/08/04 10:39:26;;;;;;;3.50;3.20;;;23.70;98.70;;;;;;6273315;28;20235;-64
2021/08/04 10:42:41;;;;;;;2.83;2.53;;;24.10;98.00;;;;;;6272540;28;20569;-64
2021/08/04 10:45:45;;;;;;;4.60;3.37;;;24.60;97.10;;;;;;6252695;28;20243;-63
2021/08/04 10:48:48;;;;;;;4.07;3.07;;;24.80;96.00;;;;;;6252471;28;20228;-63
2021/08/04 10:52:09;;;;;;;5.50;3.60;;;24.80;95.30;;;;;;6252414;28;20598;-67
2021/08/04 10:55:13;;;;;;;3.77;3.40;;;24.90;95.60;;;;;;6252493;28;20232;-68
2021/08/04 10:58:18;;;;;;;4.47;3.00;;;25.30;95.10;;;;;;6252628;28;20235;-67
2021/08/04 11:01:24;;;;;;;4.43;2.90;;;25.80;94.50;;;;;;6256204;28;20238;-67
2021/08/04 11:04:55;;;;;;;3.30;2.50;;;25.90;93.40;;;;;;6275854;28;20227;-66
2021/08/04 11:08:17;;;;;;;4.53;3.33;;;25.80;92.90;;;;;;6253104;28;20537;-66
2021/08/04 11:11:52;;;;;;;3.20;2.90;;;25.80;93.30;;;;;;6277008;28;20254;-65
2021/08/04 11:14:58;;;;;;;3.90;3.00;;;25.80;92.60;;;;;;6276357;28;20556;-64
2021/08/04 11:18:08;;;;;;;6.67;2.70;;;25.60;92.90;;;;;;6276342;28;20223;-66
2021/08/04 11:21:13;;;;;;;4.10;2.80;;;25.50;92.80;;;;;;6276704;28;20570;-65
2021/08/04 11:24:37;;;;;;;4.20;3.00;;;25.40;93.10;;;;;;6276270;28;20293;-65
2021/08/04 11:28:05;;;;;;;3.20;3.00;;;25.40;93.10;;;;;;6269343;28;20227;-62
2021/08/04 11:31:11;;;;;;;2.77;2.53;;;25.60;93.10;;;;;;6260099;28;20215;-62
2021/08/04 11:34:29;;;;;;;3.10;2.90;;;25.80;92.40;;;;;;6286079;28;20427;-62
2021/08/04 11:37:42;;;;;;;3.17;2.97;;;26.10;92.50;;;;;;6251563;28;20224;-62
2021/08/04 11:40:46;;;;;;;3.47;3.17;;;26.20;92.20;;;;;;6269815;28;20310;-62
2021/08/04 11:43:50;;;;;;;3.00;2.80;;;26.10;91.70;;;;;;6267782;28;20598;-62
2021/08/04 11:47:00;;;;;;;3.30;2.93;;;26.20;91.50;;;;;;6251438;28;20228;-62
2021/08/04 11:50:06;;;;;;;5.10;3.27;;;26.40;92.00;;;;;;6250875;28;20322;-62
2021/08/04 11:53:10;;;;;;;4.03;3.00;;;26.30;91.50;;;;;;6250670;28;20242;-62
2021/08/04 11:56:13;;;;;;;3.93;3.53;;;26.30;91.60;;;;;;6250762;28;20234;-62
2021/08/04 11:59:16;;;;;;;4.13;3.53;;;26.30;91.30;;;;;;6251044;28;20232;-63
2021/08/04 12:02:22;;;;;;;4.20;3.80;;;25.90;91.40;;;;;;6269769;28;20227;-63
2021/08/04 12:05:26;;;;;;;3.20;2.70;;;25.70;91.90;;;;;;6275253;28;20324;-63
2021/08/04 12:08:29;;;;;;;4.20;3.40;;;25.60;92.20;;;;;;6274459;28;20222;-59
2021/08/04 12:11:42;;;;;;;3.60;3.30;;;25.60;92.50;;;;;;6298418;28;20233;-62
2021/08/04 12:14:46;;;;;;;3.67;3.30;;;25.70;92.50;;;;;;6299486;28;20231;-63
2021/08/04 12:18:06;;;;;;;3.10;2.90;;;25.80;91.90;;;;;;6261613;28;20278;-59
2021/08/04 12:21:09;;;;;;;2.93;2.73;;;25.40;92.30;;;;;;6250158;28;20227;-62
2021/08/04 12:24:12;;;;;;;3.97;3.67;;;25.30;92.70;;;;;;6250169;28;20243;-62
2021/08/04 12:27:29;;;;;;;3.40;3.10;;;25.20;92.70;;;;;;6249928;28;20223;-62
2021/08/04 12:30:35;;;;;;;3.63;3.33;;;25.20;92.90;;;;;;6249883;28;20247;-62
2021/08/04 12:33:54;;;;;;;3.60;3.23;;;25.10;92.90;;;;;;6249646;28;20228;-62
2021/08/04 12:36:58;;;;;;;4.70;3.57;;;24.90;93.30;;;;;;6273450;28;20215;-62
2021/08/04 12:40:10;;;;;;;5.53;2.90;;;24.80;93.70;;;;;;6274346;28;20200;-62
2021/08/04 12:43:14;;;;;;;3.70;3.40;;;25.10;93.80;;;;;;6274873;28;20226;-61
2021/08/04 12:46:27;;;;;;;3.73;3.40;;;25.40;93.00;;;;;;6274379;28;20231;-60
2021/08/04 12:49:31;;;;;;;3.93;3.60;;;25.60;92.80;;;;;;6274507;28;20281;-60
2021/08/04 12:52:38;;;;;;;3.73;3.50;;;25.50;92.80;;;;;;6274249;28;20277;-60
2021/08/04 12:56:00;;;;;;;5.57;3.37;;;25.40;93.40;;;;;;6274648;28;20242;-60
2021/08/04 12:59:05;;;;;;;4.37;3.13;;;25.30;93.00;;;;;;6273953;28;20234;-61
2021/08/04 13:02:10;;;;;;;3.30;3.10;;;25.30;93.10;;;;;;6273560;28;20235;-61
2021/08/04 13:05:14;;;;;;;3.70;3.40;;;25.10;93.30;;;;;;6273406;28;20369;-65
2021/08/04 13:08:31;;;;;;;3.67;3.37;;;25.00;93.50;;;;;;6249009;28;20232;-65
2021/08/04 13:11:34;;;;;;;3.30;3.00;;;24.90;93.80;;;;;;6253737;28;20233;-64
2021/08/04 13:14:56;;;;;;;3.73;3.43;;;24.80;94.00;;;;;;6260249;28;20235;-64
2021/08/04 13:17:59;;;;;;;3.87;3.43;;;24.60;94.50;;;;;;6269822;28;20288;-65
2021/08/04 13:21:14;;;;;;;3.93;3.20;;;24.20;94.90;;;;;;6259294;28;20243;-65
2021/08/04 13:24:28;;;;;;;3.37;3.07;;;24.10;95.60;;;;;;6249052;28;20228;-65
2021/08/04 13:27:36;;;;;;;3.50;3.10;;;24.20;95.90;;;;;;6248843;28;20688;-67
2021/08/04 13:30:41;;;;;;;3.67;3.37;;;24.40;95.80;;;;;;6249047;28;20224;-65
2021/08/04 13:33:47;;;;;;;3.70;3.17;;;24.60;95.20;;;;;;6248873;28;20224;-66
2021/08/04 13:36:53;;;;;;;3.30;3.07;;;24.60;95.20;;;;;;6249248;28;20228;-64
2021/08/04 13:39:56;;;;;;;3.27;3.03;;;24.60;95.50;;;;;;6256707;28;20218;-64
2021/08/04 13:43:00;;;;;;;3.53;3.23;;;24.60;95.40;;;;;;6273905;28;20203;-64
2021/08/04 13:46:05;;;;;;;4.60;4.07;;;24.50;95.60;;;;;;6274054;28;20208;-65
2021/08/04 13:49:09;;;;;;;3.97;3.40;;;24.50;95.50;;;;;;6273637;28;20215;-64
2021/08/04 13:52:13;;;;;;;5.00;3.50;;;24.50;95.70;;;;;;6273455;28;20222;-63
2021/08/04 13:55:18;;;;;;;4.20;3.30;;;24.40;96.00;;;;;;6272070;28;20624;-65
2021/08/04 13:58:21;;;;;;;4.23;3.70;;;24.40;96.10;;;;;;6273361;28;20564;-64
2021/08/04 14:01:25;;;;;;;3.50;3.20;;;24.40;96.00;;;;;;6273242;28;20235;-63
2021/08/04 14:04:28;;;;;;;4.40;3.30;;;24.40;96.10;;;;;;6272684;28;20231;-63
2021/08/04 14:07:33;;;;;;;3.27;3.07;;;24.30;96.30;;;;;;6273242;28;20258;-64
2021/08/04 14:10:37;;;;;;;3.70;3.30;;;24.30;96.60;;;;;;6273930;28;20232;-64
2021/08/04 14:13:40;;;;;;;3.50;3.17;;;24.30;96.20;;;;;;6271363;28;20227;-64
2021/08/04 14:16:43;;;;;;;3.40;3.10;;;24.20;96.30;;;;;;6276550;28;20317;-64
2021/08/04 14:19:47;;;;;;;3.80;3.50;;;24.30;96.70;;;;;;6276271;28;20683;-65
2021/08/04 14:22:52;;;;;;;4.03;3.63;;;24.30;96.50;;;;;;6276142;28;20230;-65
2021/08/04 14:25:55;;;;;;;3.67;3.40;;;24.30;96.50;;;;;;6276359;28;20289;-65
2021/08/04 14:28:58;;;;;;;3.40;3.10;;;24.20;96.70;;;;;;6274486;28;20238;-65
2021/08/04 14:32:02;;;;;;;3.90;3.60;;;24.10;96.80;;;;;;6276205;28;20223;-64
2021/08/04 14:35:06;;;;;;;3.70;3.40;;;24.10;97.00;;;;;;6275298;28;20231;-65
2021/08/04 14:38:11;;;;;;;3.20;3.00;;;24.10;97.10;;;;;;6276230;28;20314;-63
2021/08/04 14:41:14;;;;;;;3.80;3.30;;;24.10;97.30;;;;;;6275549;28;20243;-64
2021/08/04 14:44:17;;;;;;;3.87;3.30;;;24.10;97.20;;;;;;6275702;28;20238;-64
2021/08/04 14:47:20;;;;;;;3.33;2.80;;;24.10;97.10;;;;;;6275738;28;20232;-66
2021/08/04 14:50:24;;;;;;;3.27;2.97;;;24.10;97.40;;;;;;6274721;28;20697;-65
2021/08/04 14:53:29;;;;;;;8.17;3.63;;;24.00;97.80;;;;;;6275318;28;20254;-65
2021/08/04 14:56:33;;;;;;;4.00;3.30;;;23.90;98.00;;;;;;6273854;28;20231;-64
2021/08/04 14:59:37;;;;;;;4.10;3.27;;;23.90;98.00;;;;;;6275010;28;20227;-66
2021/08/04 15:02:40;;;;;;;3.57;3.27;;;23.80;97.80;;;;;;6273807;28;20688;-66
2021/08/04 15:05:44;;;;;;;3.63;3.10;;;23.90;98.10;;;;;;6274544;28;20681;-64
2021/08/04 15:08:48;;;;;;;3.33;3.03;;;23.80;98.10;;;;;;6275218;28;20238;-68
2021/08/04 15:11:52;;;;;;;3.00;2.70;;;23.90;98.20;;;;;;6275007;28;20227;-66
2021/08/04 15:14:55;;;;;;;3.40;3.10;;;23.80;98.40;;;;;;6274395;28;20232;-67
2021/08/04 15:17:58;;;;;;;3.60;3.30;;;23.70;98.30;;;;;;6270551;28;20304;-66
2021/08/04 15:21:02;;;;;;;3.53;3.23;;;23.60;98.40;;;;;;6274982;28;20617;-67
2021/08/04 15:24:07;;;;;;;4.33;3.13;;;23.60;98.70;;;;;;6274456;28;20232;-63
2021/08/04 15:27:10;;;;;;;4.80;3.83;;;23.50;98.80;;;;;;6273482;28;20230;-63
2021/08/04 15:30:14;;;;;;;4.07;3.67;;;23.40;99.00;;;;;;6273194;28;20296;-63
2021/08/04 15:33:17;;;;;;;3.63;3.33;;;23.40;99.20;;;;;;6272449;28;20693;-63
2021/08/04 15:36:20;;;;;;;3.40;3.10;;;23.40;99.30;;;;;;6272207;28;20617;-63
2021/08/04 15:39:24;;;;;;;4.13;3.83;;;23.30;99.40;;;;;;6272522;28;20692;-63
2021/08/04 15:42:28;;;;;;;3.77;3.43;;;23.40;99.60;;;;;;6273419;28;20247;-61
2021/08/04 15:45:31;;;;;;;3.60;3.30;;;23.40;99.60;;;;;;6273373;28;20292;-62
2021/08/04 15:48:35;;;;;;;3.40;3.20;;;23.30;99.90;;;;;;6274038;28;20254;-62
2021/08/04 15:51:56;;;;;;;4.50;3.60;;;23.40;99.90;;;;;;6273808;28;20247;-62
2021/08/04 15:55:00;;;;;;;3.57;3.27;;;23.40;99.90;;;;;;6274742;28;20231;-62
2021/08/04 15:58:04;;;;;;;3.60;2.83;;;23.30;99.90;;;;;;6259857;28;20216;-62
2021/08/04 16:01:07;;;;;;;3.50;3.20;;;23.40;99.90;;;;;;6257450;28;20203;-63
2021/08/04 16:04:10;;;;;;;4.37;3.97;;;23.40;99.90;;;;;;6275328;28;20219;-63
2021/08/04 16:07:13;;;;;;;3.93;3.63;;;23.40;99.90;;;;;;6274635;28;20203;-62